This is the latest recevied weather packets stored in our database for station/object KC9EGS. If no packets are shown the sender has not sent any weather packets the latest 10 day(s).
| Time | Temp. | Humidity | Pressure | Rain* | Wind** | Luminosity | Snow |
|---|---|---|---|---|---|---|---|
| 1777820112 | 15° C | 49% | 999.8 hPa | 0 mm | - | - | - |
| 1777819213 | 13.89° C | 53% | 1000.1 hPa | 0 mm | - | - | - |
| 1777818919 | 13.89° C | 55% | 1000.1 hPa | 0 mm | - | - | - |
| 1777818313 | 12.78° C | 55% | 1000.6 hPa | 0 mm | - | - | - |
| 1777817718 | 12.22° C | 58% | 1000.6 hPa | 0 mm | - | - | - |
| 1777817412 | 11.67° C | 61% | 1000.5 hPa | 0 mm | - | - | - |
| 1777817119 | 11.67° C | 61% | 1000.5 hPa | 0 mm | - | - | - |
| 1777816512 | 11.67° C | 61% | 1000.8 hPa | 0 mm | - | - | - |
| 1777815920 | 11.11° C | 61% | 1000.8 hPa | 0 mm | - | - | - |
| 1777815614 | 11.11° C | 61% | 1000.8 hPa | 0 mm | - | - | - |
| 1777815319 | 11.11° C | 62% | 1000.8 hPa | 0 mm | - | - | - |
| 1777814712 | 10.56° C | 63% | 1000.9 hPa | 0 mm | - | - | - |
| 1777814117 | 10.56° C | 63% | 1000.9 hPa | 0 mm | - | - | - |
| 1777813812 | 10.56° C | 64% | 1000.5 hPa | 0 mm | - | - | - |
| 1777813517 | 10.56° C | 64% | 1000.5 hPa | 0 mm | - | - | - |
| 1777812913 | 10° C | 65% | 1000.6 hPa | 0 mm | - | - | - |
| 1777812318 | 10° C | 64% | 1000.6 hPa | 0 mm | - | - | - |
| 1777812013 | 9.44° C | 65% | 1000.7 hPa | 0 mm | - | - | - |
| 1777811720 | 9.44° C | 65% | 1000.7 hPa | 0 mm | - | - | - |
| 1777811112 | 9.44° C | 66% | 1000.8 hPa | 0 mm | - | - | - |
| 1777810518 | 8.89° C | 67% | 1000.8 hPa | 0 mm | - | - | - |
| 1777810212 | 8.89° C | 68% | 1000.8 hPa | 0 mm | - | - | - |
| 1777809313 | 8.89° C | 70% | 1000.9 hPa | 0 mm | - | - | - |
| 1777808718 | 8.89° C | 71% | 1000.9 hPa | 0 mm | - | - | - |
| 1777808412 | 8.33° C | 71% | 1000.9 hPa | 0 mm | - | - | - |
* Rain latest hour (hover to see other rain measurements)
** Current wind speed in m/s (hover to see current wind gust speed)